createdAt,value
2023-04-09T00:02:58.084Z,28.48
2023-04-09T00:06:02.884Z,26.13
2023-04-09T00:09:07.560Z,25.57
2023-04-09T00:12:12.004Z,29.33
2023-04-09T00:15:27.876Z,24.48
2023-04-09T00:18:35.014Z,25.90
2023-04-09T00:21:39.383Z,29.60
2023-04-09T00:24:46.136Z,27.05
2023-04-09T00:27:49.842Z,26.00
2023-04-09T00:30:58.276Z,27.63
2023-04-09T00:34:03.798Z,27.60
2023-04-09T00:37:07.777Z,29.40
2023-04-09T00:40:12.035Z,31.73
2023-04-09T00:43:16.266Z,29.92
2023-04-09T00:46:20.323Z,30.60
2023-04-09T00:49:27.164Z,34.75
2023-04-09T00:52:31.903Z,30.30
2023-04-09T00:55:37.096Z,30.33
2023-04-09T00:58:44.302Z,31.55
2023-04-09T01:01:48.579Z,32.13
2023-04-09T01:04:53.257Z,34.78
2023-04-09T01:08:18.673Z,30.98
2023-04-09T01:11:37.723Z,34.55
2023-04-09T01:15:00.178Z,34.13
2023-04-09T01:18:09.254Z,35.58
2023-04-09T01:21:24.376Z,34.72
2023-04-09T01:24:53.873Z,27.17
2023-04-09T01:28:28.622Z,34.17
2023-04-09T01:31:39.296Z,33.40
2023-04-09T01:34:46.613Z,33.70
2023-04-09T01:37:52.110Z,29.88
2023-04-09T01:40:58.123Z,30.85
2023-04-09T01:44:04.419Z,31.63
2023-04-09T01:47:10.126Z,31.90
2023-04-09T01:50:14.420Z,28.95
2023-04-09T01:53:18.733Z,28.65
2023-04-09T01:56:22.686Z,30.00
2023-04-09T01:59:26.755Z,28.02
2023-04-09T02:02:41.641Z,29.10
2023-04-09T02:05:50.613Z,23.42
2023-04-09T02:08:55.836Z,28.60
2023-04-09T02:12:03.398Z,27.85
2023-04-09T02:15:08.744Z,29.17
2023-04-09T02:18:28.151Z,30.38
2023-04-09T02:21:33.488Z,29.50
2023-04-09T02:24:38.469Z,27.17
2023-04-09T02:27:42.143Z,22.17
2023-04-09T02:30:46.424Z,24.55
2023-04-09T02:33:50.376Z,26.55
2023-04-09T02:36:54.286Z,23.95
2023-04-09T02:39:58.384Z,23.13
2023-04-09T02:43:02.631Z,21.98
2023-04-09T02:46:06.788Z,22.83
2023-04-09T02:49:11.939Z,20.52
2023-04-09T02:52:15.823Z,20.58
2023-04-09T02:55:21.269Z,21.77
2023-04-09T02:58:25.034Z,21.45
2023-04-09T03:01:29.057Z,19.33
2023-04-09T03:04:32.999Z,19.77
2023-04-09T03:07:36.948Z,19.52
2023-04-09T03:10:41.468Z,18.92
2023-04-09T03:13:45.382Z,18.73
2023-04-09T03:16:49.331Z,18.70
2023-04-09T03:19:53.336Z,16.27
2023-04-09T03:22:58.520Z,16.65
2023-04-09T03:26:14.104Z,17.35
2023-04-09T03:29:24.753Z,16.45
2023-04-09T03:32:29.238Z,18.27
2023-04-09T03:35:33.342Z,17.70
2023-04-09T03:38:38.402Z,17.73
2023-04-09T03:41:54.872Z,20.02
2023-04-09T03:44:59.176Z,21.23
2023-04-09T03:48:10.721Z,35.30
2023-04-09T03:51:19.921Z,24.83
2023-04-09T03:54:31.728Z,18.25
2023-04-09T03:57:37.500Z,18.90
2023-04-09T04:00:45.876Z,20.05
2023-04-09T04:04:08.081Z,17.08
2023-04-09T04:07:27.283Z,16.60
2023-04-09T04:10:39.071Z,14.65
2023-04-09T04:16:49.113Z,12.88
2023-04-09T04:19:57.103Z,14.07
2023-04-09T04:23:01.975Z,14.07
2023-04-09T04:26:13.462Z,12.43
2023-04-09T04:35:29.114Z,13.38
2023-04-09T04:38:38.350Z,12.15
2023-04-09T04:41:49.481Z,11.93
2023-04-09T04:45:00.286Z,12.27
2023-04-09T04:48:20.216Z,11.02
2023-04-09T04:51:24.904Z,10.75
2023-04-09T04:54:47.417Z,11.50
2023-04-09T04:57:57.111Z,12.88
2023-04-09T05:01:05.784Z,10.60
2023-04-09T05:04:10.415Z,12.48
2023-04-09T05:07:15.202Z,11.33
2023-04-09T05:10:26.298Z,8.93
2023-04-09T05:13:32.249Z,8.75
2023-04-09T05:16:42.405Z,8.52
2023-04-09T05:19:53.528Z,8.93
2023-04-09T05:23:05.110Z,8.55
2023-04-09T05:26:15.835Z,23.75
2023-04-09T05:33:26.002Z,10.00
2023-04-09T05:36:33.003Z,9.07
2023-04-09T05:39:38.832Z,11.98
2023-04-09T05:42:43.675Z,9.25
2023-04-09T05:45:59.294Z,7.82
2023-04-09T05:49:05.519Z,9.93
2023-04-09T05:52:12.788Z,10.32
2023-04-09T05:55:18.423Z,8.80
2023-04-09T05:58:30.570Z,8.57
2023-04-09T06:01:36.299Z,7.82
2023-04-09T06:04:41.014Z,9.50
2023-04-09T06:07:45.502Z,8.52
2023-04-09T06:10:51.452Z,7.38
2023-04-09T06:13:55.556Z,17.02
2023-04-09T06:17:01.284Z,10.00
2023-04-09T06:20:06.292Z,9.23
2023-04-09T06:23:10.742Z,9.43
2023-04-09T06:26:15.570Z,9.65
2023-04-09T06:29:19.857Z,7.90
2023-04-09T06:32:24.367Z,7.90
2023-04-09T06:35:28.997Z,10.02
2023-04-09T06:38:33.584Z,9.10
2023-04-09T06:41:38.131Z,8.60
2023-04-09T06:44:51.479Z,12.95
2023-04-09T06:47:56.405Z,9.65
2023-04-09T06:51:00.832Z,9.57
2023-04-09T06:54:05.506Z,9.63
2023-04-09T06:57:10.285Z,8.45
2023-04-09T07:00:15.463Z,9.07
2023-04-09T07:03:20.374Z,8.07
2023-04-09T07:06:24.830Z,8.40
2023-04-09T07:09:29.487Z,10.35
2023-04-09T07:12:38.150Z,12.88
2023-04-09T07:15:42.835Z,8.40
2023-04-09T07:18:48.011Z,10.30
2023-04-09T07:21:52.820Z,9.88
2023-04-09T07:24:57.639Z,8.87
2023-04-09T07:28:02.451Z,12.95
2023-04-09T07:31:07.008Z,8.67
2023-04-09T07:34:11.880Z,8.35
2023-04-09T07:37:16.275Z,7.67
2023-04-09T07:40:24.087Z,18.67
2023-04-09T07:43:28.615Z,11.73
2023-04-09T07:46:33.148Z,7.00
2023-04-09T07:49:38.974Z,7.60
2023-04-09T07:52:44.052Z,8.15
2023-04-09T07:55:48.363Z,6.78
2023-04-09T07:58:52.934Z,7.30
2023-04-09T08:01:58.003Z,6.97
2023-04-09T08:05:03.327Z,7.63
2023-04-09T08:08:08.251Z,6.82
2023-04-09T08:11:12.735Z,6.60
2023-04-09T08:14:18.390Z,6.35
2023-04-09T08:17:23.068Z,8.57
2023-04-09T08:20:28.766Z,8.67
2023-04-09T08:26:37.536Z,9.05
2023-04-09T08:29:43.470Z,8.27
2023-04-09T08:32:48.385Z,11.50
2023-04-09T08:35:53.155Z,13.03
2023-04-09T08:38:57.338Z,7.97
2023-04-09T08:42:04.644Z,10.57
2023-04-09T08:45:10.314Z,7.90
2023-04-09T08:51:24.811Z,7.57
2023-04-09T08:54:29.558Z,9.15
2023-04-09T08:57:42.465Z,7.88
2023-04-09T09:00:46.994Z,6.97
2023-04-09T09:04:02.869Z,8.27
2023-04-09T09:07:08.103Z,9.68
2023-04-09T09:10:12.501Z,10.13
2023-04-09T09:13:31.982Z,12.63
2023-04-09T09:16:40.683Z,24.75
2023-04-09T09:19:44.738Z,35.17
2023-04-09T09:22:54.923Z,17.98
2023-04-09T09:26:00.300Z,41.83
2023-04-09T09:29:06.594Z,23.13
2023-04-09T09:32:16.291Z,24.88
2023-04-09T09:35:22.375Z,32.88
2023-04-09T09:38:26.940Z,25.93
2023-04-09T09:41:32.554Z,24.27
2023-04-09T09:47:42.604Z,20.52
2023-04-09T09:50:50.644Z,23.17
2023-04-09T09:53:58.152Z,29.85
2023-04-09T09:57:09.034Z,24.95
2023-04-09T10:00:18.181Z,23.92
2023-04-09T10:03:36.574Z,28.00
2023-04-09T10:06:46.313Z,32.75
2023-04-09T10:09:53.149Z,32.95
2023-04-09T10:12:58.836Z,32.05
2023-04-09T10:19:12.354Z,58.30
2023-04-09T10:22:23.399Z,66.72
2023-04-09T10:25:29.332Z,70.20
2023-04-09T10:31:50.710Z,46.97
2023-04-09T10:35:00.214Z,43.25
2023-04-09T10:38:04.577Z,44.65
2023-04-09T10:41:17.812Z,25.63
2023-04-09T10:44:23.835Z,21.10
2023-04-09T10:47:39.599Z,22.55
2023-04-09T10:50:45.776Z,29.98
2023-04-09T10:53:55.092Z,16.52
2023-04-09T10:57:14.666Z,21.50
2023-04-09T11:00:19.592Z,38.13
2023-04-09T11:03:30.812Z,39.87
2023-04-09T11:06:38.516Z,33.30
2023-04-09T11:09:43.388Z,24.90
2023-04-09T11:12:49.718Z,99.00
2023-04-09T11:15:56.665Z,72.10
2023-04-09T11:19:01.414Z,18.42
2023-04-09T11:22:07.717Z,35.95
2023-04-09T11:25:18.658Z,23.83
2023-04-09T11:28:24.241Z,11.32
2023-04-09T11:31:30.183Z,12.05
2023-04-09T11:34:34.782Z,11.60
2023-04-09T11:37:39.541Z,17.33
2023-04-09T11:40:49.300Z,14.80
2023-04-09T11:43:54.431Z,12.55
2023-04-09T11:47:00.723Z,16.45
2023-04-09T11:50:08.654Z,11.48
2023-04-09T11:53:23.722Z,10.52
2023-04-09T11:56:33.895Z,13.57
2023-04-09T11:59:40.632Z,18.15
2023-04-09T12:03:00.434Z,15.25
2023-04-09T12:06:06.499Z,17.55
2023-04-09T12:09:14.997Z,17.67
2023-04-09T12:12:25.319Z,16.45
2023-04-09T12:15:37.029Z,15.98
2023-04-09T12:18:42.363Z,12.13
2023-04-09T12:21:59.215Z,11.48
2023-04-09T12:25:05.374Z,17.13
2023-04-09T12:28:17.612Z,24.20
2023-04-09T12:31:22.218Z,33.97
2023-04-09T12:34:28.102Z,21.52
2023-04-09T12:40:37.844Z,35.58
2023-04-09T12:46:48.786Z,14.07
2023-04-09T12:49:53.195Z,25.40
2023-04-09T12:52:57.865Z,24.35
2023-04-09T12:56:02.597Z,8.55
2023-04-09T12:59:07.244Z,7.68
2023-04-09T13:02:12.196Z,11.82
2023-04-09T13:05:19.189Z,8.68
2023-04-09T13:08:23.760Z,7.53
2023-04-09T13:11:28.399Z,7.70
2023-04-09T13:14:32.979Z,6.97
2023-04-09T13:17:38.426Z,13.45
2023-04-09T13:20:43.111Z,14.48
2023-04-09T13:23:47.124Z,12.40
2023-04-09T13:26:52.206Z,7.75
2023-04-09T13:29:56.781Z,26.77
2023-04-09T13:33:01.550Z,21.25
2023-04-09T13:36:07.590Z,10.50
2023-04-09T13:39:12.464Z,9.45
2023-04-09T13:42:17.925Z,19.25
2023-04-09T13:45:24.727Z,24.08
2023-04-09T13:48:29.392Z,22.92
2023-04-09T13:51:35.094Z,69.80
2023-04-09T13:54:39.678Z,20.77
2023-04-09T13:57:45.539Z,15.63
2023-04-09T14:03:54.400Z,9.68
2023-04-09T14:06:59.076Z,11.15
2023-04-09T14:10:03.635Z,17.65
2023-04-09T14:13:11.317Z,14.82
2023-04-09T14:16:15.887Z,8.75
2023-04-09T14:19:20.117Z,8.32
2023-04-09T14:22:24.094Z,7.05
2023-04-09T14:25:28.374Z,9.60
2023-04-09T14:28:33.321Z,7.20
2023-04-09T14:31:37.792Z,6.97
2023-04-09T14:34:42.433Z,8.45
2023-04-09T14:37:47.807Z,8.77
2023-04-09T14:40:52.967Z,8.25
2023-04-09T14:43:57.452Z,9.05
2023-04-09T14:47:02.035Z,10.40
2023-04-09T14:50:06.613Z,9.00
2023-04-09T14:53:11.554Z,19.83
2023-04-09T14:56:16.369Z,11.77
2023-04-09T14:59:21.084Z,13.07
2023-04-09T15:02:25.733Z,12.45
2023-04-09T15:05:30.648Z,8.23
2023-04-09T15:08:35.225Z,7.85
2023-04-09T15:11:39.556Z,11.15
2023-04-09T15:14:44.192Z,7.30
2023-04-09T15:17:48.924Z,7.13
2023-04-09T15:20:53.593Z,6.55
2023-04-09T15:23:59.730Z,6.85
2023-04-09T15:27:04.381Z,6.47
2023-04-09T15:30:09.342Z,6.70
2023-04-09T15:33:14.575Z,6.57
2023-04-09T15:36:19.098Z,6.63
2023-04-09T15:39:29.038Z,6.10
2023-04-09T15:42:33.528Z,6.55
2023-04-09T15:45:38.097Z,6.63
2023-04-09T15:48:42.647Z,6.72
2023-04-09T15:51:46.682Z,6.07
2023-04-09T15:54:50.725Z,7.05
2023-04-09T15:57:56.001Z,7.20
2023-04-09T16:01:00.031Z,6.63
2023-04-09T16:04:05.875Z,5.95
2023-04-09T16:07:11.660Z,6.47
2023-04-09T16:10:15.477Z,6.50
2023-04-09T16:13:19.378Z,6.93
2023-04-09T16:16:24.379Z,6.47
2023-04-09T16:19:29.178Z,5.78
2023-04-09T16:22:34.768Z,6.38
2023-04-09T16:25:39.134Z,5.85
2023-04-09T16:28:43.625Z,5.93
2023-04-09T16:31:47.661Z,6.57
2023-04-09T16:34:52.679Z,6.28
2023-04-09T16:37:57.529Z,6.25
2023-04-09T16:41:02.273Z,6.30
2023-04-09T16:44:07.398Z,5.93
2023-04-09T16:47:11.472Z,6.10
2023-04-09T16:50:16.317Z,5.88
2023-04-09T16:53:21.365Z,6.10
2023-04-09T16:56:26.206Z,6.53
2023-04-09T16:59:30.583Z,5.85
2023-04-09T17:02:35.433Z,5.85
2023-04-09T17:05:39.472Z,5.70
2023-04-09T17:08:43.797Z,5.97
2023-04-09T17:11:48.502Z,5.88
2023-04-09T17:14:52.469Z,6.20
2023-04-09T17:17:59.110Z,7.32
2023-04-09T17:21:03.640Z,6.20
2023-04-09T17:24:08.025Z,5.50
2023-04-09T17:27:12.299Z,5.38
2023-04-09T17:30:17.100Z,5.97
2023-04-09T17:33:21.083Z,5.53
2023-04-09T17:36:25.532Z,5.65
2023-04-09T17:39:32.325Z,6.20
2023-04-09T17:42:36.215Z,5.60
2023-04-09T17:45:40.663Z,5.38
2023-04-09T17:48:45.763Z,5.53
2023-04-09T17:51:49.823Z,6.00
2023-04-09T17:54:54.416Z,5.70
2023-04-09T17:57:58.989Z,5.70
2023-04-09T18:01:03.104Z,6.22
2023-04-09T18:04:07.778Z,5.45
2023-04-09T18:07:12.728Z,5.85
2023-04-09T18:13:53.763Z,5.75
2023-04-09T18:16:58.253Z,6.57
2023-04-09T18:20:02.410Z,6.07
2023-04-09T18:23:06.285Z,6.03
2023-04-09T18:26:10.608Z,5.32
2023-04-09T18:29:14.649Z,5.97
2023-04-09T18:32:20.386Z,5.88
2023-04-09T18:35:24.262Z,6.47
2023-04-09T18:38:30.135Z,6.30
2023-04-09T18:41:34.763Z,5.57
2023-04-09T18:44:39.630Z,7.07
2023-04-09T18:47:43.706Z,6.60
2023-04-09T18:50:48.021Z,6.35
2023-04-09T18:53:54.652Z,5.20
2023-04-09T18:57:01.126Z,6.13
2023-04-09T19:00:06.013Z,6.40
2023-04-09T19:03:13.020Z,5.28
2023-04-09T19:06:19.207Z,5.93
2023-04-09T19:09:26.290Z,5.68
2023-04-09T19:12:30.534Z,6.25
2023-04-09T19:15:34.859Z,5.88
2023-04-09T19:18:39.562Z,5.65
2023-04-09T19:21:44.001Z,5.72
2023-04-09T19:24:48.421Z,6.25
2023-04-09T19:27:54.975Z,6.28
2023-04-09T19:31:00.118Z,5.70
2023-04-09T19:34:06.947Z,6.05
2023-04-09T19:37:12.514Z,5.90
2023-04-09T19:40:18.743Z,5.90
2023-04-09T19:43:23.391Z,5.47
2023-04-09T19:46:28.122Z,5.30
2023-04-09T19:49:32.609Z,5.80
2023-04-09T19:52:38.569Z,5.75
2023-04-09T19:55:42.921Z,5.93
2023-04-09T19:58:47.438Z,6.88
2023-04-09T20:01:52.134Z,5.38
2023-04-09T20:04:56.595Z,8.88
2023-04-09T20:08:01.666Z,5.75
2023-04-09T20:11:06.604Z,6.22
2023-04-09T20:14:12.746Z,6.50
2023-04-09T20:17:20.567Z,6.20
2023-04-09T20:20:24.994Z,6.10
2023-04-09T20:23:29.953Z,5.70
2023-04-09T20:26:34.654Z,8.53
2023-04-09T20:29:39.788Z,5.13
2023-04-09T20:32:44.369Z,6.22
2023-04-09T20:35:50.588Z,8.38
2023-04-09T20:38:55.792Z,19.40
2023-04-09T20:41:59.871Z,27.02
2023-04-09T20:45:03.926Z,26.70
2023-04-09T20:48:07.929Z,7.53
2023-04-09T20:51:12.799Z,7.35
2023-04-09T20:54:18.743Z,6.35
2023-04-09T20:57:23.590Z,6.32
2023-04-09T21:00:37.241Z,6.70
2023-04-09T21:03:42.018Z,7.03
2023-04-09T21:06:46.798Z,6.90
2023-04-09T21:09:51.692Z,7.30
2023-04-09T21:12:56.072Z,7.37
2023-04-09T21:15:59.934Z,7.00
2023-04-09T21:19:07.852Z,7.00
2023-04-09T21:22:12.509Z,11.15
2023-04-09T21:25:16.737Z,13.82
2023-04-09T21:28:20.859Z,8.63
2023-04-09T21:31:25.314Z,8.73
2023-04-09T21:34:29.883Z,8.60
2023-04-09T21:37:35.193Z,9.05
2023-04-09T21:40:40.057Z,9.35
2023-04-09T21:43:44.575Z,7.87
2023-04-09T21:46:48.827Z,8.57
2023-04-09T21:49:53.317Z,8.55
2023-04-09T21:52:57.580Z,10.55
2023-04-09T21:56:04.704Z,8.23
2023-04-09T21:59:09.406Z,8.63
2023-04-09T22:02:13.907Z,10.32
2023-04-09T22:05:18.510Z,8.98
2023-04-09T22:08:22.868Z,9.88
2023-04-09T22:11:28.943Z,9.43
2023-04-09T22:14:33.648Z,10.10
2023-04-09T22:17:38.140Z,9.75
2023-04-09T22:20:43.153Z,10.55
2023-04-09T22:23:47.683Z,9.25
2023-04-09T22:26:51.764Z,11.55
2023-04-09T22:29:56.768Z,11.30
2023-04-09T22:33:00.891Z,10.02
2023-04-09T22:36:05.374Z,12.68
2023-04-09T22:39:09.894Z,12.25
2023-04-09T22:42:14.268Z,9.95
2023-04-09T22:45:18.594Z,11.18
2023-04-09T22:48:23.740Z,10.95
2023-04-09T22:51:27.832Z,10.65
2023-04-09T22:54:32.514Z,11.27
2023-04-09T22:57:39.155Z,12.48
2023-04-09T23:00:43.440Z,9.77
2023-04-09T23:03:47.755Z,10.38
2023-04-09T23:06:52.527Z,11.32
2023-04-09T23:09:57.090Z,13.18
2023-04-09T23:13:01.707Z,10.98
2023-04-09T23:16:10.300Z,11.45
2023-04-09T23:19:14.363Z,10.60
2023-04-09T23:22:18.637Z,11.18
2023-04-09T23:25:23.389Z,10.18
2023-04-09T23:28:40.660Z,9.68
2023-04-09T23:31:45.103Z,10.48
2023-04-09T23:34:49.525Z,12.43
2023-04-09T23:38:49.466Z,11.25
2023-04-09T23:43:07.898Z,13.05
2023-04-09T23:51:25.199Z,12.05
2023-04-09T23:55:43.422Z,12.15
